Time;durP1;ratioP1;P1;durP2;ratioP2;P2;SDS_P1;SDS_P2;PMS_P1;PMS_P2;Temp;Humidity;BMP_temperature;BMP_pressure;BME280_temperature;BME280_humidity;BME280_pressure;Samples;Min_cycle;Max_cycle;Signal;HPM_P1;HPM_P2
2022/03/12 00:01:21;;;;;;;38.28;15.00;;;;;;;-3.43;60.05;95966.09;5031567;28;20033;-80
2022/03/12 00:03:48;;;;;;;37.97;15.63;;;;;;;-2.71;60.10;96089.53;5034040;28;20035;-80
2022/03/12 00:06:15;;;;;;;39.72;18.20;;;;;;;-2.58;62.03;96101.97;5033794;28;20030;-80
2022/03/12 00:08:42;;;;;;;50.08;21.77;;;;;;;-2.90;64.04;96015.44;5032217;28;20102;-80
2022/03/12 00:11:23;;;;;;;52.75;20.85;;;;;;;-2.39;65.81;96106.75;5031979;28;20033;-80
2022/03/12 00:13:51;;;;;;;48.50;21.30;;;;;;;-2.96;67.43;96036.09;5032014;28;20049;-80
2022/03/12 00:16:24;;;;;;;48.08;19.65;;;;;;;-2.90;69.28;96108.91;5033720;28;20794;-80
2022/03/12 00:19:01;;;;;;;48.97;19.45;;;;;;;-2.97;69.51;96061.22;5031961;28;20297;-80
2022/03/12 00:21:29;;;;;;;44.40;19.48;;;;;;;-2.95;69.51;96037.72;5032289;28;20063;-80
2022/03/12 00:23:58;;;;;;;43.55;20.48;;;;;;;-3.12;70.47;96052.53;5032693;28;20041;-80
2022/03/12 00:26:24;;;;;;;50.33;20.45;;;;;;;-3.12;70.76;96031.78;5034057;28;20033;-80
2022/03/12 00:28:52;;;;;;;51.58;22.42;;;;;;;-3.18;71.78;96037.63;5048809;28;20033;-80
2022/03/12 00:31:18;;;;;;;48.75;23.08;;;;;;;-2.85;71.81;96091.06;4942677;28;20060;-80
2022/03/12 00:34:02;;;;;;;42.00;20.35;;;;;;;-3.31;73.15;96065.88;258937;28;10022904;-80
2022/03/12 00:36:27;;;;;;;54.05;24.80;;;;;;;-3.72;74.00;96028.84;3993548;28;10001915;-80
2022/03/12 00:38:54;;;;;;;55.15;22.88;;;;;;;-2.93;73.47;96106.66;5035898;28;20583;-81
2022/03/12 00:41:20;;;;;;;52.17;21.60;;;;;;;-3.50;73.82;96022.97;5037755;28;20178;-81
2022/03/12 00:43:46;;;;;;;46.70;21.52;;;;;;;-3.75;75.25;95993.72;5036152;28;20095;-81
2022/03/12 00:46:12;;;;;;;41.20;21.30;;;;;;;-3.41;75.09;96040.13;5036230;28;20045;-80
2022/03/12 00:48:41;;;;;;;44.53;19.92;;;;;;;-3.52;74.57;95989.44;5053220;28;20411;-80
2022/03/12 00:51:08;;;;;;;46.33;20.35;;;;;;;-2.83;75.58;96103.88;5037904;28;20041;-80
2022/03/12 00:53:35;;;;;;;43.75;20.92;;;;;;;-3.17;75.12;96027.09;5036376;28;20044;-80
2022/03/12 00:56:02;;;;;;;43.00;19.50;;;;;;;-3.85;74.93;95907.56;5037900;28;20388;-80
2022/03/12 00:58:28;;;;;;;44.72;21.00;;;;;;;-3.13;74.68;96025.00;5036228;28;20127;-80
2022/03/12 01:00:53;;;;;;;39.75;17.90;;;;;;;-2.48;74.49;96108.56;5036208;28;20462;-81
2022/03/12 01:03:20;;;;;;;35.83;18.67;;;;;;;-3.28;74.44;95998.91;5052732;28;20064;-81
2022/03/12 01:05:48;;;;;;;33.38;16.38;;;;;;;-2.48;73.88;96108.56;5037668;28;20029;-80
2022/03/12 01:08:16;;;;;;;45.85;17.50;;;;;;;-2.43;74.19;96108.88;5037316;28;20025;-80
2022/03/12 01:10:43;;;;;;;32.72;16.60;;;;;;;-2.55;74.39;96101.63;5036764;28;20037;-80
2022/03/12 01:13:08;;;;;;;27.38;14.38;;;;;;;-2.87;73.76;96037.69;5036668;28;20135;-81
2022/03/12 01:15:34;;;;;;;23.77;12.02;;;;;;;-2.73;74.31;96060.31;5035954;28;20067;-81
2022/03/12 01:18:01;;;;;;;21.13;11.60;;;;;;;-2.99;73.63;96008.72;5051974;28;20041;-81
2022/03/12 01:20:26;;;;;;;18.13;9.68;;;;;;;-2.52;74.08;96112.50;5035882;28;20124;-80
2022/03/12 01:22:52;;;;;;;18.00;9.05;;;;;;;-2.88;72.74;96059.41;5035280;28;20072;-80
2022/03/12 01:25:19;;;;;;;17.58;8.77;;;;;;;-2.79;72.46;96090.38;5036190;28;20414;-80
2022/03/12 01:27:45;;;;;;;17.73;8.77;;;;;;;-3.29;72.94;96005.09;5038157;28;20045;-80
2022/03/12 01:30:12;;;;;;;15.48;8.75;;;;;;;-2.80;74.08;96096.53;5037949;28;20096;-81
2022/03/12 01:32:38;;;;;;;15.88;8.45;;;;;;;-3.26;73.96;96063.59;5037385;28;20046;-81
2022/03/12 01:35:05;;;;;;;21.08;10.90;;;;;;;-3.01;74.54;96085.09;5037240;28;20072;-80
2022/03/12 01:37:31;;;;;;;17.63;10.20;;;;;;;-2.99;73.96;96065.81;5036305;28;20122;-81
2022/03/12 01:39:58;;;;;;;18.73;9.80;;;;;;;-3.42;73.71;96032.50;5038617;28;20038;-81
2022/03/12 01:42:27;;;;;;;18.65;10.25;;;;;;;-3.85;74.63;95968.94;5035767;28;20073;-81
2022/03/12 01:44:53;;;;;;;17.85;9.95;;;;;;;-3.32;74.31;96051.31;5036699;28;20069;-80
2022/03/12 01:47:20;;;;;;;20.38;10.73;;;;;;;-3.71;75.25;96031.28;5034730;28;20041;-81
2022/03/12 01:49:50;;;;;;;21.15;10.23;;;;;;;-3.24;75.17;96100.56;5034242;28;20041;-81
2022/03/12 01:52:15;;;;;;;21.75;10.45;;;;;;;-4.06;74.86;95961.69;5034131;28;20546;-80
2022/03/12 01:54:43;;;;;;;20.30;10.23;;;;;;;-3.34;75.38;96095.56;5034441;28;20033;-81
2022/03/12 01:57:09;;;;;;;22.05;9.98;;;;;;;-4.40;75.19;95969.63;5035543;28;20041;-81
2022/03/12 01:59:36;;;;;;;16.27;9.40;;;;;;;-4.17;75.09;95977.56;5034089;28;20037;-80
2022/03/12 02:02:04;;;;;;;19.77;9.50;;;;;;;-3.76;74.87;96032.75;5011571;28;20133;-80
2022/03/12 02:04:30;;;;;;;16.13;8.48;;;;;;;-3.85;73.66;96029.34;4998132;28;20445;-80
2022/03/12 02:06:58;;;;;;;14.88;8.30;;;;;;;-3.29;74.03;96098.47;4997316;28;20064;-81
2022/03/12 02:09:24;;;;;;;19.23;8.65;;;;;;;-3.14;73.73;96099.41;5014334;28;20078;-81
2022/03/12 02:11:51;;;;;;;15.20;7.97;;;;;;;-3.46;72.79;96067.53;5014157;28;20104;-80
2022/03/12 02:14:27;;;;;;;14.02;8.10;;;;;;;-3.31;72.23;96058.09;4996715;28;20041;-80
2022/03/12 02:17:00;;;;;;;15.82;8.77;;;;;;;-2.99;72.59;96103.91;4997399;28;20496;-80
2022/03/12 02:19:28;;;;;;;19.55;8.98;;;;;;;-2.95;72.17;96106.00;5013409;28;20041;-80
2022/03/12 02:21:59;;;;;;;18.27;9.82;;;;;;;-2.98;72.74;96108.13;4997355;28;20118;-80
2022/03/12 02:24:27;;;;;;;18.98;9.75;;;;;;;-2.88;72.37;96113.94;4997930;28;20052;-80
2022/03/12 02:26:54;;;;;;;18.13;9.75;;;;;;;-3.12;71.97;96074.09;5015302;28;20101;-80
2022/03/12 02:29:22;;;;;;;22.73;10.25;;;;;;;-2.77;72.45;96113.56;4998174;28;20041;-80
2022/03/12 02:32:06;;;;;;;12.68;7.47;;;;;;;-2.79;72.37;96123.31;2800411;28;10002528;-80
2022/03/12 02:34:53;;;;;;;22.60;9.88;;;;;;;-2.86;72.08;96084.25;3285082;28;10001388;-80
2022/03/12 02:37:32;;;;;;;18.40;8.93;;;;;;;-3.88;71.20;95932.00;5016987;28;20076;-80
2022/03/12 02:40:21;;;;;;;17.08;8.77;;;;;;;-3.29;70.62;96045.78;4999773;28;20025;-80
2022/03/12 02:42:50;;;;;;;17.02;8.60;;;;;;;-4.30;70.21;95892.59;5014759;28;20052;-80
2022/03/12 02:45:18;;;;;;;18.35;9.15;;;;;;;-3.40;70.27;96035.75;4998265;28;20099;-79
2022/03/12 02:47:43;;;;;;;17.52;8.57;;;;;;;-3.51;70.36;95996.22;5014794;28;20034;-79
2022/03/12 02:50:12;;;;;;;21.42;9.38;;;;;;;-2.75;70.52;96122.78;5016644;28;20038;-79
2022/03/12 02:52:41;;;;;;;15.88;9.07;;;;;;;-3.39;70.51;96024.41;5015002;28;20040;-79
2022/03/12 02:55:09;;;;;;;19.60;9.40;;;;;;;-3.39;70.37;96032.19;4997547;28;20033;-79
2022/03/12 02:57:34;;;;;;;14.75;7.95;;;;;;;-3.76;69.24;95999.06;4997997;28;20038;-81
2022/03/12 03:00:06;;;;;;;18.05;9.00;;;;;;;-3.30;70.12;96068.31;5016458;28;20028;-81
2022/03/12 03:02:39;;;;;;;16.33;8.75;;;;;;;-3.09;69.89;96079.94;5001796;28;20049;-81
2022/03/12 03:05:13;;;;;;;16.58;8.77;;;;;;;-3.01;70.03;96111.88;5017520;28;20048;-81
2022/03/12 03:07:40;;;;;;;20.13;9.52;;;;;;;-3.33;69.50;96045.31;5036105;28;20079;-81
2022/03/12 03:10:08;;;;;;;20.25;8.82;;;;;;;-3.57;69.49;95991.72;5035972;28;20064;-81
2022/03/12 03:12:34;;;;;;;24.10;10.20;;;;;;;-3.73;69.98;95962.41;5018116;28;20037;-80
2022/03/12 03:15:00;;;;;;;21.98;8.75;;;;;;;-2.81;70.08;96115.69;5017435;28;20446;-81
2022/03/12 03:17:26;;;;;;;21.60;8.88;;;;;;;-3.46;69.97;96032.06;5033742;28;20038;-81
2022/03/12 03:19:52;;;;;;;19.65;10.40;;;;;;;-3.30;69.79;96023.41;5017658;28;20060;-81
2022/03/12 03:22:19;;;;;;;23.63;10.75;;;;;;;-3.40;69.95;96039.16;5018030;28;20488;-81
2022/03/12 03:24:44;;;;;;;25.17;10.77;;;;;;;-3.22;70.54;96086.47;5017324;28;20098;-81
2022/03/12 03:27:11;;;;;;;23.27;10.40;;;;;;;-3.07;71.19;96091.78;5035185;28;20060;-81
2022/03/12 03:29:36;;;;;;;28.20;12.15;;;;;;;-3.78;71.80;96011.38;5016106;28;20041;-81
2022/03/12 03:32:02;;;;;;;34.90;11.57;;;;;;;-3.43;71.50;96080.97;5016947;28;20033;-81
2022/03/12 03:34:31;;;;;;;33.58;14.13;;;;;;;-3.24;71.66;96105.75;5017469;28;20127;-81
2022/03/12 03:36:57;;;;;;;25.02;10.85;;;;;;;-2.96;71.91;96145.09;5016808;28;20467;-81
2022/03/12 03:39:22;;;;;;;28.70;11.65;;;;;;;-2.90;71.73;96144.44;5016794;28;20033;-81
2022/03/12 03:41:48;;;;;;;25.25;11.57;;;;;;;-2.96;71.43;96119.13;5016888;28;20059;-81
2022/03/12 03:44:20;;;;;;;36.97;11.77;;;;;;;-2.85;71.12;96140.38;5035289;28;20037;-81
2022/03/12 03:46:46;;;;;;;23.70;11.52;;;;;;;-3.75;71.23;96009.28;5016521;28;20029;-81
2022/03/12 03:49:11;;;;;;;32.95;11.30;;;;;;;-2.82;71.26;96150.41;5017567;28;20029;-81
2022/03/12 03:51:41;;;;;;;26.67;10.80;;;;;;;-3.29;71.10;96062.16;5017099;28;20179;-80
2022/03/12 03:54:08;;;;;;;27.27;11.48;;;;;;;-4.29;70.74;95915.75;5035274;28;20051;-80
2022/03/12 03:56:35;;;;;;;21.52;11.93;;;;;;;-4.02;70.78;96010.41;5017604;28;20037;-80
2022/03/12 03:59:00;;;;;;;22.90;11.10;;;;;;;-3.43;70.70;96075.00;5016443;28;20064;-80
2022/03/12 04:01:26;;;;;;;24.80;12.15;;;;;;;-3.35;70.71;96103.50;5017044;28;20029;-80
2022/03/12 04:03:52;;;;;;;21.50;11.18;;;;;;;-3.06;69.91;96160.06;5033439;28;20037;-80
2022/03/12 04:06:20;;;;;;;23.13;11.40;;;;;;;-3.64;70.34;96102.25;5035245;28;20064;-81
2022/03/12 04:08:46;;;;;;;22.40;11.57;;;;;;;-4.18;70.48;96027.75;5037126;28;20409;-81
2022/03/12 04:11:17;;;;;;;25.35;11.90;;;;;;;-3.79;71.16;96118.59;5038200;28;20045;-80
2022/03/12 04:13:44;;;;;;;25.15;11.05;;;;;;;-4.21;71.13;96021.13;5037152;28;20041;-80
2022/03/12 04:16:10;;;;;;;28.80;11.63;;;;;;;-4.07;70.69;96043.78;5037157;28;20040;-80
2022/03/12 04:18:37;;;;;;;25.60;11.07;;;;;;;-3.86;70.95;96076.16;5038599;28;20073;-81
2022/03/12 04:21:05;;;;;;;24.17;12.32;;;;;;;-3.62;70.79;96104.69;5038538;28;20052;-81
2022/03/12 04:23:30;;;;;;;21.77;11.70;;;;;;;-3.27;71.13;96176.13;5038598;28;20061;-81
2022/03/12 04:25:58;;;;;;;33.78;13.80;;;;;;;-4.23;71.10;96014.47;5037087;28;20510;-81
2022/03/12 04:28:27;;;;;;;26.00;12.95;;;;;;;-3.73;70.95;96085.06;5037795;28;20026;-80
2022/03/12 04:30:53;;;;;;;25.77;12.68;;;;;;;-3.52;70.87;96149.41;4967997;28;21564;-80
2022/03/12 04:33:19;;;;;;;17.68;10.08;;;;;;;-3.64;71.30;96122.16;315379;28;10022865;-80
2022/03/12 04:35:46;;;;;;;30.27;13.63;;;;;;;-3.96;71.52;96092.69;5035826;28;20045;-80
2022/03/12 04:38:13;;;;;;;29.67;12.95;;;;;;;-4.15;71.55;96074.06;5036224;28;20087;-80
2022/03/12 04:40:40;;;;;;;26.20;14.10;;;;;;;-4.59;71.74;96035.50;5036431;28;20045;-80
2022/03/12 04:43:07;;;;;;;29.67;14.13;;;;;;;-4.18;71.76;96102.84;5036155;28;20067;-80
2022/03/12 04:45:34;;;;;;;29.77;14.23;;;;;;;-4.10;71.59;96108.88;5036339;28;20044;-80
2022/03/12 04:48:01;;;;;;;31.38;13.43;;;;;;;-3.65;71.71;96167.22;5037900;28;20045;-80
2022/03/12 04:50:27;;;;;;;33.25;15.68;;;;;;;-3.47;71.19;96170.47;5036278;28;20029;-80
2022/03/12 04:52:59;;;;;;;23.15;11.88;;;;;;;-3.76;70.76;96154.59;5035979;28;20045;-80
2022/03/12 04:55:27;;;;;;;24.15;11.75;;;;;;;-3.90;71.29;96176.75;5036080;28;20033;-81
2022/03/12 04:57:53;;;;;;;26.88;12.85;;;;;;;-4.10;70.90;96114.03;5037227;28;20045;-81
2022/03/12 05:00:18;;;;;;;29.98;13.68;;;;;;;-3.35;70.50;96209.84;5036399;28;20127;-80
2022/03/12 05:02:45;;;;;;;32.35;14.80;;;;;;;-3.95;70.38;96114.22;5036632;28;20140;-80
2022/03/12 05:05:12;;;;;;;35.45;14.65;;;;;;;-3.57;69.87;96164.63;5036029;28;20045;-80
2022/03/12 05:07:45;;;;;;;29.95;15.60;;;;;;;-3.73;69.83;96141.28;5035981;28;20037;-80
2022/03/12 05:10:16;;;;;;;38.13;14.60;;;;;;;-4.16;70.18;96113.88;5037936;28;20044;-80
2022/03/12 05:12:43;;;;;;;41.65;16.13;;;;;;;-4.71;70.93;96034.97;5035730;28;20033;-81
2022/03/12 05:15:14;;;;;;;34.10;13.77;;;;;;;-3.48;70.69;96217.31;5037333;28;20068;-81
2022/03/12 05:17:46;;;;;;;34.17;14.95;;;;;;;-3.46;70.60;96223.16;5052136;28;20107;-81
2022/03/12 05:20:18;;;;;;;37.13;15.18;;;;;;;-3.88;70.46;96151.47;5037453;28;20586;-80
2022/03/12 05:22:43;;;;;;;;;;;;;;;-3.46;70.63;96233.53;5036932;28;20053;-80
2022/03/12 05:25:10;;;;;;;34.45;14.48;;;;;;;-4.27;70.86;96131.34;5035740;28;19924;-80
2022/03/12 05:27:35;;;;;;;38.03;16.38;;;;;;;-4.17;70.68;96130.38;5035052;28;20037;-80
2022/03/12 05:30:01;;;;;;;32.83;15.40;;;;;;;-3.67;71.03;96211.47;5035657;28;20081;-80
2022/03/12 05:32:26;;;;;;;40.05;16.17;;;;;;;-4.15;71.08;96150.00;5037498;28;20055;-81
2022/03/12 05:34:52;;;;;;;52.75;16.40;;;;;;;-4.08;70.93;96140.63;5035591;28;20034;-81
2022/03/12 05:37:19;;;;;;;38.70;16.98;;;;;;;-3.52;70.55;96220.22;5051956;28;20495;-81
2022/03/12 05:39:45;;;;;;;39.30;15.60;;;;;;;-3.89;69.83;96186.16;5036948;28;20041;-81
2022/03/12 05:42:10;;;;;;;38.22;15.98;;;;;;;-3.90;70.71;96172.41;5036769;28;20044;-81
2022/03/12 05:44:36;;;;;;;34.95;15.68;;;;;;;-4.42;72.02;96158.00;5037441;28;20060;-81
2022/03/12 05:47:09;;;;;;;39.97;18.15;;;;;;;-3.64;72.00;96259.56;5035807;28;20043;-81
2022/03/12 05:49:35;;;;;;;40.55;16.52;;;;;;;-3.45;71.44;96267.09;5036911;28;20037;-81
2022/03/12 05:52:00;;;;;;;42.72;17.05;;;;;;;-4.15;72.26;96175.91;5035355;28;20040;-81
2022/03/12 05:54:26;;;;;;;55.92;20.48;;;;;;;-3.39;72.17;96271.63;5035259;28;20103;-82
2022/03/12 05:56:51;;;;;;;37.67;16.27;;;;;;;-3.53;72.79;96280.03;5037082;28;20029;-82
2022/03/12 05:59:18;;;;;;;34.38;15.50;;;;;;;-3.86;72.06;96198.78;5036691;28;20041;-82
2022/03/12 06:01:44;;;;;;;37.17;15.68;;;;;;;-3.54;71.17;96232.53;5051644;28;20056;-82
2022/03/12 06:04:11;;;;;;;27.17;13.27;;;;;;;-3.69;70.98;96197.03;5035289;28;20041;-81
2022/03/12 06:06:36;;;;;;;31.02;14.43;;;;;;;-3.53;71.72;96267.88;5034576;28;20504;-81
2022/03/12 06:09:07;;;;;;;30.20;14.77;;;;;;;-4.12;70.49;96165.19;5034613;28;20047;-81
2022/03/12 06:11:36;;;;;;;31.55;14.68;;;;;;;-4.02;70.69;96196.97;5034900;28;20119;-81
2022/03/12 06:14:02;;;;;;;33.38;14.90;;;;;;;-3.41;70.40;96280.53;5034968;28;20048;-81
2022/03/12 06:16:28;;;;;;;33.25;15.18;;;;;;;-3.26;69.57;96281.50;5051623;28;20033;-81
2022/03/12 06:18:54;;;;;;;29.95;14.38;;;;;;;-3.70;69.86;96226.53;5036296;28;20511;-81
2022/03/12 06:21:21;;;;;;;30.58;14.85;;;;;;;-3.27;70.09;96293.66;5035693;28;20496;-81
2022/03/12 06:23:48;;;;;;;30.98;14.52;;;;;;;-4.32;70.53;96153.50;5035978;28;20048;-81
2022/03/12 06:26:17;;;;;;;28.52;15.23;;;;;;;-3.48;70.19;96271.75;5035633;28;20116;-81
2022/03/12 06:28:56;;;;;;;27.90;14.30;;;;;;;-4.37;71.69;96203.19;4350500;28;10001539;-81
2022/03/12 06:31:22;;;;;;;39.15;15.95;;;;;;;-3.46;70.82;96301.75;1387607;28;10001912;-81
2022/03/12 06:33:49;;;;;;;30.83;14.57;;;;;;;-3.74;70.18;96222.63;5036426;28;20356;-81
2022/03/12 06:36:15;;;;;;;33.58;15.07;;;;;;;-3.57;69.51;96225.06;5036227;28;20032;-81
2022/03/12 06:38:41;;;;;;;28.05;14.38;;;;;;;-4.21;68.97;96135.09;5036119;28;20624;-81
2022/03/12 06:41:06;;;;;;;23.20;11.48;;;;;;;-3.53;65.19;96295.59;5050981;28;20029;-81
2022/03/12 06:43:33;;;;;;;23.17;10.57;;;;;;;-3.61;65.35;96244.53;5035934;28;20037;-81
2022/03/12 06:46:01;;;;;;;22.80;11.98;;;;;;;-3.96;64.92;96162.66;5034383;28;20033;-81
2022/03/12 06:48:29;;;;;;;17.75;9.75;;;;;;;-3.70;63.33;96244.66;5035776;28;20035;-81
2022/03/12 06:50:55;;;;;;;28.02;12.07;;;;;;;-3.32;62.56;96279.56;5033991;28;20041;-81
2022/03/12 06:53:21;;;;;;;20.30;10.15;;;;;;;-3.52;62.39;96285.06;5035550;28;20044;-81
2022/03/12 06:55:46;;;;;;;21.45;10.27;;;;;;;-3.44;62.57;96247.16;5035906;28;20403;-81
2022/03/12 06:58:12;;;;;;;19.60;8.40;;;;;;;-3.03;60.18;96318.84;5033874;28;20034;-81
2022/03/12 07:00:38;;;;;;;21.38;10.70;;;;;;;-3.61;60.12;96222.97;5036486;28;20044;-81
2022/03/12 07:03:04;;;;;;;18.65;9.82;;;;;;;-3.60;59.92;96211.63;5034096;28;20056;-81
2022/03/12 07:05:30;;;;;;;25.98;11.32;;;;;;;-2.92;60.11;96276.19;5034343;28;20511;-81
2022/03/12 07:07:56;;;;;;;21.70;10.07;;;;;;;-2.54;59.65;96327.44;5050922;28;20033;-82
2022/03/12 07:10:23;;;;;;;17.60;10.25;;;;;;;-2.60;58.95;96328.09;5035813;28;20083;-81
2022/03/12 07:12:49;;;;;;;17.13;9.32;;;;;;;-3.52;58.33;96196.09;5018093;28;20041;-81
2022/03/12 07:15:16;;;;;;;16.70;8.75;;;;;;;-3.11;57.48;96269.53;5034258;28;20152;-81
2022/03/12 07:17:42;;;;;;;22.00;10.55;;;;;;;-2.78;58.86;96337.81;5033913;28;20072;-81
2022/03/12 07:20:09;;;;;;;22.25;10.23;;;;;;;-3.38;58.03;96256.88;5034118;28;20033;-81
2022/03/12 07:22:35;;;;;;;22.92;10.60;;;;;;;-3.27;58.68;96239.19;5035814;28;20120;-81
2022/03/12 07:25:00;;;;;;;27.10;11.38;;;;;;;-2.43;58.48;96347.84;5033974;28;20088;-81
2022/03/12 07:27:26;;;;;;;23.75;11.48;;;;;;;-3.17;58.46;96242.44;5017746;28;20060;-82
2022/03/12 07:29:53;;;;;;;23.88;11.75;;;;;;;-2.68;58.91;96364.44;5032927;28;20040;-81
2022/03/12 07:32:20;;;;;;;27.92;12.95;;;;;;;-3.14;59.21;96269.88;5035301;28;20057;-81
2022/03/12 07:34:47;;;;;;;22.85;11.30;;;;;;;-3.46;59.05;96242.13;5033868;28;20422;-81
2022/03/12 07:37:12;;;;;;;20.05;10.63;;;;;;;-2.93;57.91;96301.31;5034298;28;20080;-81
2022/03/12 07:39:38;;;;;;;20.95;11.07;;;;;;;-2.43;58.26;96371.22;5034335;28;20128;-81
2022/03/12 07:42:04;;;;;;;26.73;11.68;;;;;;;-2.46;57.45;96375.97;5035596;28;20123;-81
2022/03/12 07:44:31;;;;;;;18.83;10.15;;;;;;;-2.48;57.78;96357.13;5033446;28;20045;-81
2022/03/12 07:46:57;;;;;;;20.63;9.98;;;;;;;-2.61;57.41;96317.84;5034042;28;20037;-81
2022/03/12 07:49:25;;;;;;;19.02;9.20;;;;;;;-3.07;58.29;96194.75;5035860;28;20087;-81
2022/03/12 07:51:50;;;;;;;21.98;10.75;;;;;;;-2.14;57.60;96297.97;5033937;28;20064;-81
2022/03/12 07:54:16;;;;;;;20.95;9.88;;;;;;;-1.76;55.55;96316.34;5034539;28;20045;-81
2022/03/12 07:56:43;;;;;;;18.33;9.13;;;;;;;-1.74;55.63;96309.16;5034691;28;20049;-81
2022/03/12 07:59:10;;;;;;;22.77;9.52;;;;;;;-1.29;53.68;96369.09;5035646;28;20064;-82
2022/03/12 08:01:36;;;;;;;16.58;8.75;;;;;;;-1.60;53.99;96389.06;5051234;28;20048;-82
2022/03/12 08:04:02;;;;;;;18.73;8.30;;;;;;;-1.53;52.47;96373.63;5050701;28;20053;-81
2022/03/12 08:06:31;;;;;;;16.45;7.82;;;;;;;-2.00;53.24;96258.25;5035917;28;20041;-82
2022/03/12 08:08:57;;;;;;;23.10;9.23;;;;;;;-1.46;53.81;96297.34;5050966;28;20033;-81
2022/03/12 08:11:28;;;;;;;23.95;10.18;;;;;;;-1.60;52.61;96324.03;5034644;28;20037;-82
2022/03/12 08:14:01;;;;;;;18.70;9.38;;;;;;;-2.56;52.33;96180.53;5034056;28;20412;-82
2022/03/12 08:16:31;;;;;;;24.30;9.10;;;;;;;-1.60;53.30;96283.22;5033098;28;20045;-81
2022/03/12 08:18:57;;;;;;;21.45;10.18;;;;;;;-1.95;53.27;96206.56;5049430;28;20045;-81
2022/03/12 08:21:23;;;;;;;17.67;9.18;;;;;;;-0.89;51.76;96377.66;5032573;28;20038;-81
2022/03/12 08:23:49;;;;;;;16.88;9.55;;;;;;;-0.74;51.97;96351.66;5016032;28;20065;-81
2022/03/12 08:26:16;;;;;;;23.58;10.07;;;;;;;-0.76;51.21;96353.66;5034224;28;20581;-81
2022/03/12 08:28:45;;;;;;;17.33;8.85;;;;;;;-1.99;49.96;96178.50;4672171;28;10000929;-81
2022/03/12 08:31:11;;;;;;;21.65;9.73;;;;;;;-1.01;50.94;96379.88;692995;28;10001910;-81
2022/03/12 08:33:37;;;;;;;20.92;10.82;;;;;;;-0.96;53.00;96348.09;5032677;28;20284;-81
2022/03/12 08:36:05;;;;;;;21.77;9.93;;;;;;;-0.88;52.38;96350.63;5032154;28;20048;-81
2022/03/12 08:38:35;;;;;;;18.88;10.02;;;;;;;-1.12;52.67;96257.88;5049575;28;20547;-81
2022/03/12 08:41:08;;;;;;;23.27;10.27;;;;;;;-0.51;52.04;96347.25;5034324;28;20038;-82
2022/03/12 08:43:35;;;;;;;22.33;9.65;;;;;;;-1.43;51.79;96220.69;5032348;28;20404;-81
2022/03/12 08:46:01;;;;;;;18.13;9.85;;;;;;;-1.09;53.36;96374.69;5032572;28;20040;-81
2022/03/12 08:48:29;;;;;;;18.10;9.82;;;;;;;-1.00;52.75;96336.41;5033455;28;20037;-82
2022/03/12 08:50:55;;;;;;;15.13;9.02;;;;;;;-0.65;52.37;96367.06;5032587;28;20590;-82
2022/03/12 08:53:21;;;;;;;18.02;9.98;;;;;;;-0.71;51.49;96375.59;5038143;28;20080;-82
2022/03/12 08:55:48;;;;;;;19.60;9.90;;;;;;;-1.00;51.08;96256.50;5036114;28;20034;-81
2022/03/12 08:58:14;;;;;;;23.70;10.57;;;;;;;0.12;51.37;96385.13;5035929;28;20041;-82
2022/03/12 09:00:40;;;;;;;20.90;9.48;;;;;;;-0.50;50.60;96333.25;5035679;28;20044;-81
2022/03/12 09:03:07;;;;;;;20.38;10.45;;;;;;;-0.39;52.42;96390.16;5035292;28;20061;-81
2022/03/12 09:05:33;;;;;;;18.85;10.18;;;;;;;-0.93;49.35;96306.09;5036546;28;20030;-81
2022/03/12 09:07:58;;;;;;;16.60;8.05;;;;;;;-1.29;46.77;96288.41;5035703;28;20063;-81
2022/03/12 09:10:24;;;;;;;20.58;8.20;;;;;;;-1.01;47.50;96278.31;5035806;28;20507;-81
2022/03/12 09:12:50;;;;;;;16.67;7.43;;;;;;;-0.75;47.58;96395.13;5034980;28;20040;-82
2022/03/12 09:15:21;;;;;;;15.15;7.40;;;;;;;-0.27;48.04;96396.56;5037249;28;20037;-81
2022/03/12 09:17:47;;;;;;;18.17;6.60;;;;;;;-0.47;47.92;96396.25;5035434;28;20079;-81
2022/03/12 09:20:13;;;;;;;14.38;7.40;;;;;;;-1.63;47.28;96204.75;5052340;28;20037;-82
2022/03/12 09:22:39;;;;;;;11.88;5.80;;;;;;;-1.11;46.01;96358.44;5035258;28;20061;-81
2022/03/12 09:25:08;;;;;;;13.57;6.75;;;;;;;-0.81;46.12;96322.91;5051989;28;20037;-81
2022/03/12 09:27:34;;;;;;;15.23;8.07;;;;;;;-0.32;47.71;96383.25;5052864;28;20045;-81
2022/03/12 09:30:00;;;;;;;12.88;7.30;;;;;;;-0.75;47.22;96306.56;5036649;28;20037;-81
2022/03/12 09:32:25;;;;;;;11.75;7.03;;;;;;;-0.64;47.08;96345.25;5035948;28;20124;-81
2022/03/12 09:34:52;;;;;;;10.95;6.18;;;;;;;-0.06;47.18;96393.28;5037653;28;20052;-81
2022/03/12 09:37:18;;;;;;;14.48;6.97;;;;;;;-0.09;47.41;96370.19;5037304;28;20171;-81
2022/03/12 09:39:43;;;;;;;16.42;7.45;;;;;;;-0.19;46.69;96406.91;5035439;28;20529;-81
2022/03/12 09:42:09;;;;;;;15.13;7.35;;;;;;;-0.11;47.34;96393.00;5035177;28;20045;-81
2022/03/12 09:44:35;;;;;;;15.73;6.20;;;;;;;-0.65;46.58;96282.88;5051873;28;20042;-81
2022/03/12 09:47:00;;;;;;;12.02;6.82;;;;;;;0.08;45.65;96369.00;5035692;28;20128;-81
2022/03/12 09:49:26;;;;;;;14.55;6.80;;;;;;;-0.03;45.50;96390.31;5037204;28;20068;-81
2022/03/12 09:51:52;;;;;;;13.50;7.05;;;;;;;-0.97;44.11;96308.22;5037619;28;20503;-81
2022/03/12 09:54:18;;;;;;;12.32;7.05;;;;;;;-0.36;46.95;96379.38;5036648;28;20112;-82
2022/03/12 09:56:44;;;;;;;20.23;8.95;;;;;;;-0.83;46.47;96304.84;5019410;28;20072;-81
2022/03/12 09:59:10;;;;;;;12.00;6.70;;;;;;;-0.17;45.07;96372.84;5036500;28;20041;-81
2022/03/12 10:01:35;;;;;;;26.25;9.05;;;;;;;-0.32;45.99;96367.63;5036156;28;20060;-81
2022/03/12 10:04:01;;;;;;;17.92;9.40;;;;;;;0.04;47.71;96364.34;5035801;28;20041;-81
2022/03/12 10:06:30;;;;;;;18.15;7.60;;;;;;;-0.27;48.27;96338.41;5018775;28;20113;-81
2022/03/12 10:08:56;;;;;;;15.68;7.50;;;;;;;0.19;47.35;96331.22;5050920;28;20129;-81
2022/03/12 10:11:22;;;;;;;15.38;8.05;;;;;;;-0.29;47.66;96338.56;5037021;28;20091;-81
2022/03/12 10:13:48;;;;;;;14.57;7.57;;;;;;;-0.55;44.96;96286.88;5035280;28;20487;-81
2022/03/12 10:16:14;;;;;;;13.93;7.65;;;;;;;0.22;46.85;96318.66;5036521;28;20415;-82
2022/03/12 10:18:41;;;;;;;16.85;7.63;;;;;;;0.14;47.33;96290.06;5035134;28;20076;-81
2022/03/12 10:21:07;;;;;;;13.48;7.63;;;;;;;-0.31;46.21;96196.41;5036964;28;20029;-81
2022/03/12 10:23:34;;;;;;;15.43;8.15;;;;;;;1.16;48.20;96329.94;5052360;28;20045;-81
2022/03/12 10:26:00;;;;;;;18.42;7.60;;;;;;;1.48;45.70;96265.88;5035956;28;20083;-81
2022/03/12 10:28:38;;;;;;;33.13;8.63;;;;;;;2.70;44.48;96293.06;4001234;28;10002003;-81
2022/03/12 10:31:05;;;;;;;23.95;8.85;;;;;;;3.43;42.05;96281.69;1735239;28;10001992;-82
2022/03/12 10:33:31;;;;;;;16.25;6.47;;;;;;;4.38;41.50;96358.31;5035548;28;20033;-82
2022/03/12 10:36:14;;;;;;;13.32;7.15;;;;;;;3.46;39.84;96361.78;5035661;28;20492;-82
2022/03/12 10:38:42;;;;;;;12.80;6.65;;;;;;;3.04;39.31;96357.69;5036734;28;20037;-82
2022/03/12 10:41:09;;;;;;;12.07;6.78;;;;;;;3.49;40.05;96358.78;5036460;28;20044;-82
2022/03/12 10:43:48;;;;;;;24.15;8.48;;;;;;;3.04;40.61;96358.50;5035191;28;20064;-81
2022/03/12 10:46:23;;;;;;;13.05;6.55;;;;;;;2.32;41.73;96360.78;5035612;28;20511;-81
2022/03/12 10:48:56;;;;;;;13.10;7.05;;;;;;;2.16;43.09;96345.38;5036661;28;20160;-81
2022/03/12 10:51:26;;;;;;;15.35;7.80;;;;;;;1.54;43.05;96296.47;5036623;28;20125;-81
2022/03/12 10:53:59;;;;;;;12.48;6.65;;;;;;;1.85;43.74;96322.25;5036748;28;20041;-81
2022/03/12 10:56:54;;;;;;;15.45;7.20;;;;;;;2.10;45.82;96352.22;5036614;28;20043;-81
2022/03/12 10:59:27;;;;;;;16.90;6.40;;;;;;;1.22;44.33;96236.94;5035865;28;20041;-81
2022/03/12 11:01:59;;;;;;;17.88;8.07;;;;;;;1.87;45.21;96315.03;5035891;28;20058;-82
2022/03/12 11:04:34;;;;;;;11.98;6.78;;;;;;;1.08;42.70;96238.59;5052194;28;20098;-82
2022/03/12 11:07:20;;;;;;;30.23;8.23;;;;;;;1.70;43.87;96345.06;5035160;28;20033;-82
2022/03/12 11:09:47;;;;;;;13.60;5.78;;;;;;;1.74;44.65;96348.94;5035453;28;20120;-82
2022/03/12 11:12:31;;;;;;;13.10;5.72;;;;;;;1.12;42.54;96300.75;5035983;28;20076;-82
2022/03/12 11:15:05;;;;;;;10.93;6.00;;;;;;;0.14;43.28;96169.25;5038078;28;20538;-82
2022/03/12 11:17:43;;;;;;;14.50;6.03;;;;;;;1.21;41.54;96327.59;5039822;28;20577;-81
2022/03/12 11:20:23;;;;;;;10.52;6.00;;;;;;;0.29;42.74;96263.94;5037236;28;20037;-82
2022/03/12 11:23:07;;;;;;;12.40;6.95;;;;;;;0.55;45.77;96243.34;5051984;28;20036;-82
2022/03/12 11:25:33;;;;;;;11.60;6.03;;;;;;;0.21;44.91;96206.66;5034118;28;20128;-83